createdAt,value
2023-04-15T00:00:23.099Z,100736.00
2023-04-15T00:02:44.881Z,100737.47
2023-04-15T00:05:07.142Z,100728.28
2023-04-15T00:07:29.667Z,100724.06
2023-04-15T00:09:55.165Z,100728.94
2023-04-15T00:12:17.098Z,100725.53
2023-04-15T00:14:40.072Z,100731.03
2023-04-15T00:17:01.875Z,100732.19
2023-04-15T00:19:24.692Z,100736.06
2023-04-15T00:21:46.400Z,100732.97
2023-04-15T00:24:08.418Z,100735.06
2023-04-15T00:26:30.254Z,100733.97
2023-04-15T00:28:52.220Z,100732.31
2023-04-15T00:31:14.315Z,100727.97
2023-04-15T00:33:36.793Z,100729.28
2023-04-15T00:35:59.372Z,100734.94
2023-04-15T00:38:21.063Z,100725.41
2023-04-15T00:40:43.587Z,100726.38
2023-04-15T00:43:05.743Z,100729.78
2023-04-15T00:45:28.673Z,100732.03
2023-04-15T00:47:51.978Z,100724.75
2023-04-15T00:50:14.151Z,100727.84
2023-04-15T00:52:36.229Z,100724.63
2023-04-15T00:54:57.962Z,100730.78
2023-04-15T00:57:22.483Z,100726.72
2023-04-15T00:59:44.622Z,100725.75
2023-04-15T01:02:08.597Z,100736.25
2023-04-15T01:04:31.060Z,100730.75
2023-04-15T01:06:53.140Z,100735.13
2023-04-15T01:09:15.381Z,100741.44
2023-04-15T01:11:37.584Z,100732.03
2023-04-15T01:13:59.999Z,100735.13
2023-04-15T01:16:22.150Z,100737.41
2023-04-15T01:18:44.761Z,100732.22
2023-04-15T01:21:07.990Z,100731.72
2023-04-15T01:23:30.079Z,100739.47
2023-04-15T01:25:53.560Z,100735.91
2023-04-15T01:28:16.092Z,100742.38
2023-04-15T01:30:38.484Z,100743.03
2023-04-15T01:33:00.267Z,100743.84
2023-04-15T01:35:22.614Z,100740.78
2023-04-15T01:37:47.266Z,100741.44
2023-04-15T01:40:12.150Z,100747.53
2023-04-15T01:42:37.886Z,100738.84
2023-04-15T01:44:59.631Z,100742.84
2023-04-15T01:47:21.622Z,100740.88
2023-04-15T01:49:44.010Z,100744.09
2023-04-15T01:52:05.862Z,100740.84
2023-04-15T01:54:28.432Z,100741.16
2023-04-15T01:56:50.628Z,100734.72
2023-04-15T01:59:14.057Z,100736.47
2023-04-15T02:01:35.762Z,100736.31
2023-04-15T02:03:57.985Z,100742.44
2023-04-15T02:06:20.171Z,100737.59
2023-04-15T02:08:43.394Z,100732.09
2023-04-15T02:11:05.194Z,100732.59
2023-04-15T02:13:27.077Z,100743.56
2023-04-15T02:15:52.665Z,100735.34
2023-04-15T02:18:16.756Z,100738.38
2023-04-15T02:20:39.630Z,100740.03
2023-04-15T02:23:01.981Z,100740.66
2023-04-15T02:25:23.808Z,100735.19
2023-04-15T02:27:46.109Z,100736.47
2023-04-15T02:30:08.405Z,100740.03
2023-04-15T02:32:30.285Z,100746.00
2023-04-15T02:34:52.591Z,100742.91
2023-04-15T02:37:14.733Z,100750.84
2023-04-15T02:39:36.391Z,100759.06
2023-04-15T02:42:00.120Z,100757.13
2023-04-15T02:44:23.459Z,100756.63
2023-04-15T02:46:50.839Z,100759.88
2023-04-15T02:49:12.413Z,100764.38
2023-04-15T02:51:34.014Z,100764.00
2023-04-15T02:53:56.608Z,100768.00
2023-04-15T02:56:19.469Z,100759.94
2023-04-15T02:58:42.871Z,100773.66
2023-04-15T03:01:05.071Z,100774.28
2023-04-15T03:03:28.288Z,100771.19
2023-04-15T03:05:49.985Z,100781.50
2023-04-15T03:08:12.607Z,100784.03
2023-04-15T03:10:34.248Z,100777.25
2023-04-15T03:12:56.802Z,100780.19
2023-04-15T03:15:19.502Z,100778.06
2023-04-15T03:17:44.507Z,100779.19
2023-04-15T03:20:08.029Z,100775.16
2023-04-15T03:22:30.001Z,100782.06
2023-04-15T03:24:52.236Z,100783.19
2023-04-15T03:27:14.182Z,100785.44
2023-04-15T03:29:36.677Z,100781.88
2023-04-15T03:31:58.469Z,100787.47
2023-04-15T03:34:21.466Z,100791.06
2023-04-15T03:36:43.363Z,100796.53
2023-04-15T03:39:05.560Z,100791.06
2023-04-15T03:41:27.154Z,100797.34
2023-04-15T03:43:48.754Z,100793.31
2023-04-15T03:46:10.695Z,100801.03
2023-04-15T03:48:32.384Z,100797.28
2023-04-15T03:50:54.114Z,100803.09
2023-04-15T03:53:16.486Z,100800.66
2023-04-15T03:55:38.361Z,100801.78
2023-04-15T03:58:00.210Z,100807.25
2023-04-15T04:00:22.151Z,100808.88
2023-04-15T04:02:46.232Z,100816.28
2023-04-15T04:05:08.899Z,100821.56
2023-04-15T04:07:31.003Z,100820.78
2023-04-15T04:09:52.803Z,100823.81
2023-04-15T04:12:14.488Z,100827.97
2023-04-15T04:14:36.118Z,100832.78
2023-04-15T04:16:57.837Z,100832.28
2023-04-15T04:19:20.319Z,100835.53
2023-04-15T04:21:41.965Z,100835.03
2023-04-15T04:24:03.704Z,100838.38
2023-04-15T04:26:25.478Z,100848.22
2023-04-15T04:28:47.084Z,100852.88
2023-04-15T04:31:08.953Z,100845.81
2023-04-15T04:33:30.718Z,100859.19
2023-04-15T04:35:52.492Z,100854.31
2023-04-15T04:38:14.446Z,100868.03
2023-04-15T04:40:36.464Z,100862.03
2023-04-15T04:42:58.729Z,100867.34
2023-04-15T04:45:20.920Z,100873.13
2023-04-15T04:47:43.050Z,100877.28
2023-04-15T04:50:05.621Z,100877.28
2023-04-15T04:52:27.387Z,100887.13
2023-04-15T04:54:49.089Z,100879.72
2023-04-15T04:57:10.856Z,100882.25
2023-04-15T04:59:33.208Z,100892.41
2023-04-15T05:01:56.081Z,100892.91
2023-04-15T05:04:18.230Z,100902.44
2023-04-15T05:06:40.850Z,100905.38
2023-04-15T05:09:03.757Z,100900.09
2023-04-15T05:11:26.151Z,100904.25
2023-04-15T05:13:48.740Z,100901.31
2023-04-15T05:16:11.999Z,100915.34
2023-04-15T05:18:34.686Z,100915.63
2023-04-15T05:20:57.567Z,100918.38
2023-04-15T05:23:19.744Z,100926.28
2023-04-15T05:25:42.105Z,100920.19
2023-04-15T05:28:04.226Z,100928.41
2023-04-15T05:30:26.778Z,100931.94
2023-04-15T05:32:48.860Z,100936.84
2023-04-15T05:35:10.900Z,100939.75
2023-04-15T05:37:33.358Z,100941.38
2023-04-15T05:39:55.452Z,100941.25
2023-04-15T05:42:17.917Z,100948.75
2023-04-15T05:44:40.392Z,100947.50
2023-04-15T05:47:04.019Z,100953.91
2023-04-15T05:49:26.515Z,100955.41
2023-04-15T05:51:49.039Z,100953.22
2023-04-15T05:54:11.254Z,100964.75
2023-04-15T05:56:33.700Z,100971.13
2023-04-15T05:58:55.941Z,100970.69
2023-04-15T06:01:18.722Z,100978.50
2023-04-15T06:03:41.125Z,100978.03
2023-04-15T06:06:03.677Z,100985.16
2023-04-15T06:08:25.274Z,100988.72
2023-04-15T06:10:47.213Z,100984.84
2023-04-15T06:13:08.953Z,100992.47
2023-04-15T06:15:31.253Z,100994.28
2023-04-15T06:17:52.904Z,100998.50
2023-04-15T06:20:14.848Z,101009.16
2023-04-15T06:22:38.022Z,101015.16
2023-04-15T06:24:59.749Z,101019.50
2023-04-15T06:27:23.018Z,101019.72
2023-04-15T06:29:44.887Z,101029.72
2023-04-15T06:32:06.896Z,101037.34
2023-04-15T06:34:28.506Z,101034.69
2023-04-15T06:36:50.237Z,101034.53
2023-04-15T06:39:11.853Z,101037.34
2023-04-15T06:41:34.232Z,101043.22
2023-04-15T06:43:55.974Z,101039.38
2023-04-15T06:46:17.595Z,101044.91
2023-04-15T06:48:39.297Z,101047.69
2023-04-15T06:51:01.215Z,101045.81
2023-04-15T06:53:22.972Z,101059.69
2023-04-15T06:55:44.702Z,101064.91
2023-04-15T06:58:06.415Z,101064.28
2023-04-15T07:00:28.751Z,101068.34
2023-04-15T07:02:51.458Z,101071.94
2023-04-15T07:05:13.184Z,101074.03
2023-04-15T07:07:35.080Z,101083.94
2023-04-15T07:09:57.208Z,101087.19
2023-04-15T07:12:18.955Z,101086.41
2023-04-15T07:14:40.572Z,101093.88
2023-04-15T07:17:02.691Z,101095.50
2023-04-15T07:19:24.502Z,101101.97
2023-04-15T07:21:47.674Z,101106.34
2023-04-15T07:24:10.505Z,101109.09
2023-04-15T07:26:32.205Z,101116.72
2023-04-15T07:28:53.845Z,101116.41
2023-04-15T07:31:16.585Z,101125.31
2023-04-15T07:33:38.428Z,101126.59
2023-04-15T07:36:00.147Z,101125.44
2023-04-15T07:38:22.172Z,101136.31
2023-04-15T07:40:44.025Z,101132.44
2023-04-15T07:43:05.991Z,101135.66
2023-04-15T07:45:27.836Z,101133.88
2023-04-15T07:47:50.909Z,101142.00
2023-04-15T07:50:12.592Z,101145.22
2023-04-15T07:52:39.109Z,101148.00
2023-04-15T07:55:00.841Z,101146.84
2023-04-15T07:57:22.574Z,101154.63
2023-04-15T07:59:44.153Z,101162.25
2023-04-15T08:02:05.843Z,101159.31
2023-04-15T08:04:28.178Z,101164.69
2023-04-15T08:06:50.328Z,101163.84
2023-04-15T08:09:11.975Z,101168.09
2023-04-15T08:11:33.817Z,101164.38
2023-04-15T08:13:55.501Z,101168.63
2023-04-15T08:16:23.525Z,101172.16
2023-04-15T08:18:47.383Z,101168.47
2023-04-15T08:21:09.406Z,101173.47
2023-04-15T08:23:32.784Z,101175.41
2023-04-15T08:25:54.463Z,101183.13
2023-04-15T08:28:17.290Z,101173.41
2023-04-15T08:30:38.936Z,101188.75
2023-04-15T08:33:00.751Z,101172.59
2023-04-15T08:35:22.383Z,101179.09
2023-04-15T08:37:44.084Z,101192.19
2023-04-15T08:40:06.908Z,101181.16
2023-04-15T08:42:36.948Z,101187.38
2023-04-15T08:45:01.776Z,101194.66
2023-04-15T08:47:31.712Z,101190.13
2023-04-15T08:49:55.629Z,101205.69
2023-04-15T08:52:17.572Z,101207.72
2023-04-15T08:54:39.819Z,101210.91
2023-04-15T08:57:02.540Z,101208.91
2023-04-15T08:59:24.478Z,101214.03
2023-04-15T09:01:46.500Z,101225.56
2023-04-15T09:04:08.900Z,101212.41
2023-04-15T09:06:31.098Z,101216.59
2023-04-15T09:08:53.198Z,101218.84
2023-04-15T09:11:14.840Z,101218.75
2023-04-15T09:13:37.005Z,101225.22
2023-04-15T09:15:58.699Z,101236.41
2023-04-15T09:18:32.476Z,101245.31
2023-04-15T09:20:54.296Z,101243.28
2023-04-15T09:23:17.557Z,101237.09
2023-04-15T09:25:42.520Z,101252.84
2023-04-15T09:28:04.664Z,101254.47
2023-04-15T09:30:28.974Z,101253.69
2023-04-15T09:32:54.158Z,101249.34
2023-04-15T09:35:15.971Z,101258.16
2023-04-15T09:37:37.685Z,101261.66
2023-04-15T09:39:59.327Z,101264.41
2023-04-15T09:42:24.623Z,101272.50
2023-04-15T09:44:46.552Z,101262.53
2023-04-15T09:47:08.149Z,101273.75
2023-04-15T09:49:29.873Z,101263.25
2023-04-15T09:52:01.702Z,101263.34
2023-04-15T09:54:36.929Z,101276.78
2023-04-15T09:57:06.405Z,101265.72
2023-04-15T09:59:28.278Z,101274.72
2023-04-15T10:01:50.609Z,101267.56
2023-04-15T10:04:12.901Z,101266.75
2023-04-15T10:06:35.846Z,101275.19
2023-04-15T10:08:59.007Z,101277.63
2023-04-15T10:11:24.043Z,101284.44
2023-04-15T10:13:48.617Z,101281.22
2023-04-15T10:16:14.290Z,101279.13
2023-04-15T10:18:42.701Z,101281.91
2023-04-15T10:21:06.058Z,101287.22
2023-04-15T10:23:28.177Z,101292.75
2023-04-15T10:25:54.566Z,101290.78
2023-04-15T10:28:17.038Z,101283.66
2023-04-15T10:30:38.866Z,101296.69
2023-04-15T10:33:06.025Z,101294.41
2023-04-15T10:35:30.772Z,101285.13
2023-04-15T10:37:52.547Z,101300.72
2023-04-15T10:40:34.596Z,101281.91
2023-04-15T10:42:56.952Z,101297.03
2023-04-15T10:45:19.400Z,101296.34
2023-04-15T10:47:43.841Z,101294.47
2023-04-15T10:50:06.089Z,101299.94
2023-04-15T10:52:29.419Z,101306.50
2023-04-15T10:55:16.077Z,101305.31
2023-04-15T10:57:40.735Z,101306.38
2023-04-15T11:00:12.847Z,101316.22
2023-04-15T11:02:53.384Z,101322.19
2023-04-15T11:05:17.563Z,101315.59
2023-04-15T11:07:52.737Z,101323.22
2023-04-15T11:10:14.299Z,101321.06
2023-04-15T11:12:37.241Z,101320.38
2023-04-15T11:14:58.995Z,101331.72
2023-04-15T11:17:29.033Z,101334.81
2023-04-15T11:19:51.165Z,101327.66
2023-04-15T11:22:12.995Z,101330.88
2023-04-15T11:24:34.806Z,101323.25
2023-04-15T11:27:01.923Z,101329.94
2023-04-15T11:29:31.310Z,101327.00
2023-04-15T11:31:52.926Z,101335.31
2023-04-15T11:34:22.999Z,101338.16
2023-04-15T11:36:44.720Z,101318.00
2023-04-15T11:39:07.559Z,101334.53
2023-04-15T11:41:29.358Z,101332.09
2023-04-15T11:43:52.372Z,101331.38
2023-04-15T11:46:14.143Z,101338.69
2023-04-15T11:48:36.794Z,101327.25
2023-04-15T11:51:05.292Z,101339.47
2023-04-15T11:53:56.870Z,101339.38
2023-04-15T11:56:22.057Z,101342.50
2023-04-15T11:58:44.778Z,101330.31
2023-04-15T12:01:07.588Z,101336.03
2023-04-15T12:03:50.374Z,101329.66
2023-04-15T12:06:21.281Z,101342.38
2023-04-15T12:08:55.817Z,101347.06
2023-04-15T12:11:19.340Z,101350.97
2023-04-15T12:13:47.016Z,101352.50
2023-04-15T12:16:08.817Z,101357.84
2023-04-15T12:18:30.678Z,101357.34
2023-04-15T12:20:52.492Z,101347.91
2023-04-15T12:23:20.126Z,101354.06
2023-04-15T12:25:42.023Z,101362.59
2023-04-15T12:28:12.100Z,101368.00
2023-04-15T12:30:34.162Z,101359.31
2023-04-15T12:32:56.684Z,101378.16
2023-04-15T12:35:21.603Z,101372.22
2023-04-15T12:37:43.289Z,101390.53
2023-04-15T12:40:08.921Z,101388.81
2023-04-15T12:42:30.602Z,101378.78
2023-04-15T12:44:52.274Z,101385.63
2023-04-15T12:47:14.603Z,101376.94
2023-04-15T12:49:36.408Z,101399.59
2023-04-15T12:52:00.742Z,101387.69
2023-04-15T12:54:23.434Z,101392.25
2023-04-15T12:56:48.277Z,101395.81
2023-04-15T12:59:10.072Z,101414.56
2023-04-15T13:01:32.097Z,101406.34
2023-04-15T13:03:54.215Z,101414.41
2023-04-15T13:06:16.183Z,101406.06
2023-04-15T13:08:42.585Z,101411.91
2023-04-15T13:11:07.275Z,101418.44
2023-04-15T13:13:29.126Z,101424.00
2023-04-15T13:15:51.109Z,101410.09
2023-04-15T13:18:13.191Z,101417.66
2023-04-15T13:20:34.968Z,101419.97
2023-04-15T13:22:56.921Z,101421.75
2023-04-15T13:25:19.541Z,101423.13
2023-04-15T13:27:41.278Z,101419.97
2023-04-15T13:30:03.838Z,101423.25
2023-04-15T13:32:26.465Z,101429.97
2023-04-15T13:34:48.249Z,101423.81
2023-04-15T13:37:10.016Z,101432.22
2023-04-15T13:39:32.056Z,101424.81
2023-04-15T13:41:53.781Z,101460.47
2023-04-15T13:44:15.549Z,101450.41
2023-04-15T13:46:39.603Z,101448.03
2023-04-15T13:49:01.371Z,101456.50
2023-04-15T13:51:23.201Z,101445.16
2023-04-15T13:53:45.282Z,101462.44
2023-04-15T13:56:08.791Z,101477.63
2023-04-15T13:58:31.307Z,101459.78
2023-04-15T14:00:53.320Z,101472.31
2023-04-15T14:03:15.332Z,101468.13
2023-04-15T14:05:38.108Z,101469.09
2023-04-15T14:08:00.600Z,101479.72
2023-04-15T14:10:22.479Z,101475.31
2023-04-15T14:12:44.347Z,101487.69
2023-04-15T14:15:06.992Z,101495.66
2023-04-15T14:17:29.354Z,101479.59
2023-04-15T14:19:51.377Z,101504.00
2023-04-15T14:22:13.791Z,101488.03
2023-04-15T14:24:36.894Z,101504.34
2023-04-15T14:27:00.269Z,101515.91
2023-04-15T14:29:22.992Z,101499.94
2023-04-15T14:32:03.927Z,101500.16
2023-04-15T14:34:27.457Z,101512.41
2023-04-15T14:36:49.899Z,101518.75
2023-04-15T14:39:14.395Z,101516.91
2023-04-15T14:41:37.199Z,101523.75
2023-04-15T14:43:59.816Z,101527.69
2023-04-15T14:46:22.829Z,101533.16
2023-04-15T14:48:45.637Z,101530.84
2023-04-15T14:51:07.680Z,101539.75
2023-04-15T14:53:29.867Z,101541.91
2023-04-15T14:55:52.064Z,101565.50
2023-04-15T14:58:14.029Z,101579.38
2023-04-15T15:00:40.819Z,101571.75
2023-04-15T15:03:03.240Z,101567.31
2023-04-15T15:05:26.277Z,101578.34
2023-04-15T15:07:48.539Z,101597.59
2023-04-15T15:10:10.969Z,101584.69
2023-04-15T15:12:33.716Z,101593.63
2023-04-15T15:14:56.074Z,101583.75
2023-04-15T15:17:18.659Z,101591.13
2023-04-15T15:19:40.669Z,101591.88
2023-04-15T15:22:03.736Z,101599.41
2023-04-15T15:24:25.606Z,101622.78
2023-04-15T15:26:47.443Z,101610.47
2023-04-15T15:29:09.476Z,101627.78
2023-04-15T15:31:31.407Z,101610.69
2023-04-15T15:33:53.387Z,101606.34
2023-04-15T15:36:16.306Z,101616.00
2023-04-15T15:38:38.353Z,101615.22
2023-04-15T15:41:00.189Z,101618.34
2023-04-15T15:43:21.947Z,101642.13
2023-04-15T15:45:43.811Z,101625.53
2023-04-15T15:48:06.305Z,101626.88
2023-04-15T15:50:28.579Z,101625.56
2023-04-15T15:52:50.793Z,101639.88
2023-04-15T15:55:12.509Z,101630.59
2023-04-15T15:57:34.217Z,101649.81
2023-04-15T16:00:10.392Z,101635.66
2023-04-15T16:02:59.806Z,101644.59
2023-04-15T16:05:16.630Z,101645.09
2023-04-15T16:07:38.379Z,101665.41
2023-04-15T16:10:00.441Z,101663.94
2023-04-15T16:12:22.303Z,101670.28
2023-04-15T16:14:44.046Z,101665.72
2023-04-15T16:17:05.813Z,101677.09
2023-04-15T16:19:27.678Z,101676.13
2023-04-15T16:21:49.954Z,101675.78
2023-04-15T16:24:11.742Z,101688.91
2023-04-15T16:26:34.416Z,101686.63
2023-04-15T16:28:56.235Z,101680.41
2023-04-15T16:31:18.079Z,101683.66
2023-04-15T16:33:40.011Z,101685.31
2023-04-15T16:36:01.758Z,101688.56
2023-04-15T16:38:23.419Z,101692.16
2023-04-15T16:40:46.049Z,101699.63
2023-04-15T16:43:08.294Z,101697.97
2023-04-15T16:45:30.131Z,101703.66
2023-04-15T16:47:52.002Z,101709.47
2023-04-15T16:50:14.702Z,101708.81
2023-04-15T16:52:36.883Z,101715.78
2023-04-15T16:54:58.791Z,101719.38
2023-04-15T16:57:20.751Z,101721.00
2023-04-15T16:59:43.163Z,101724.56
2023-04-15T17:02:04.933Z,101720.66
2023-04-15T17:04:28.636Z,101723.28
2023-04-15T17:06:51.258Z,101733.16
2023-04-15T17:09:12.881Z,101739.03
2023-04-15T17:11:35.175Z,101723.91
2023-04-15T17:13:56.954Z,101730.25
2023-04-15T17:16:18.724Z,101727.44
2023-04-15T17:18:40.733Z,101738.94
2023-04-15T17:21:02.541Z,101742.16
2023-04-15T17:23:26.166Z,101750.06
2023-04-15T17:25:47.984Z,101740.75
2023-04-15T17:28:09.729Z,101743.81
2023-04-15T17:30:33.071Z,101756.09
2023-04-15T17:32:55.043Z,101757.06
2023-04-15T17:35:17.185Z,101749.75
2023-04-15T17:37:39.194Z,101752.13
2023-04-15T17:40:00.991Z,101755.81
2023-04-15T17:42:23.113Z,101755.13
2023-04-15T17:44:46.007Z,101770.78
2023-04-15T17:47:07.693Z,101768.63
2023-04-15T17:49:30.765Z,101772.03
2023-04-15T17:51:54.898Z,101784.31
2023-04-15T17:54:16.888Z,101788.50
2023-04-15T17:56:38.622Z,101800.97
2023-04-15T17:59:02.481Z,101805.97
2023-04-15T18:01:24.602Z,101801.69
2023-04-15T18:03:46.627Z,101797.94
2023-04-15T18:06:08.535Z,101807.81
2023-04-15T18:08:31.450Z,101812.63
2023-04-15T18:10:53.156Z,101812.94
2023-04-15T18:13:15.979Z,101812.75
2023-04-15T18:15:37.782Z,101814.66
2023-04-15T18:18:00.347Z,101810.91
2023-04-15T18:20:22.087Z,101822.53
2023-04-15T18:22:43.920Z,101825.28
2023-04-15T18:25:06.928Z,101825.59
2023-04-15T18:27:32.194Z,101827.56
2023-04-15T18:29:54.066Z,101837.72
2023-04-15T18:32:15.835Z,101835.59
2023-04-15T18:34:37.828Z,101838.06
2023-04-15T18:37:01.537Z,101834.75
2023-04-15T18:39:23.509Z,101850.75
2023-04-15T18:41:45.311Z,101850.56
2023-04-15T18:44:07.161Z,101860.56
2023-04-15T18:46:29.285Z,101855.97
2023-04-15T18:48:51.366Z,101874.22
2023-04-15T18:51:13.295Z,101865.06
2023-04-15T18:53:37.087Z,101869.28
2023-04-15T18:56:01.710Z,101869.41
2023-04-15T18:58:23.812Z,101867.88
2023-04-15T19:00:46.496Z,101875.59
2023-04-15T19:03:08.388Z,101877.31
2023-04-15T19:05:31.013Z,101876.59
2023-04-15T19:07:52.783Z,101882.41
2023-04-15T19:10:14.435Z,101894.91
2023-04-15T19:12:36.996Z,101895.22
2023-04-15T19:14:58.886Z,101894.09
2023-04-15T19:17:21.295Z,101901.84
2023-04-15T19:19:43.659Z,101901.31
2023-04-15T19:22:06.180Z,101904.06
2023-04-15T19:24:27.992Z,101910.19
2023-04-15T19:26:51.142Z,101910.19
2023-04-15T19:29:12.864Z,101910.47
2023-04-15T19:31:34.597Z,101921.25
2023-04-15T19:33:56.770Z,101925.63
2023-04-15T19:36:18.429Z,101929.22
2023-04-15T19:38:40.359Z,101927.56
2023-04-15T19:41:02.045Z,101929.50
2023-04-15T19:43:25.156Z,101930.13
2023-04-15T19:45:49.487Z,101930.69
2023-04-15T19:48:11.324Z,101935.09
2023-04-15T19:50:33.544Z,101940.59
2023-04-15T19:52:56.484Z,101932.63
2023-04-15T19:55:18.477Z,101934.88
2023-04-15T19:57:40.926Z,101938.13
2023-04-15T20:00:02.539Z,101929.34
2023-04-15T20:02:29.243Z,101933.75
2023-04-15T20:04:51.063Z,101935.19
2023-04-15T20:07:12.679Z,101928.88
2023-04-15T20:09:34.325Z,101927.75
2023-04-15T20:12:46.715Z,101921.44
2023-04-15T20:14:38.123Z,101931.09
2023-04-15T20:17:00.657Z,101934.94
2023-04-15T20:19:22.355Z,101935.25
2023-04-15T20:21:44.393Z,101941.56
2023-04-15T20:24:07.044Z,101944.59
2023-04-15T20:26:28.860Z,101938.28
2023-04-15T20:28:51.827Z,101939.91
2023-04-15T20:31:13.555Z,101940.75
2023-04-15T20:33:35.347Z,101942.63
2023-04-15T20:35:57.079Z,101943.19
2023-04-15T20:38:20.426Z,101943.50
2023-04-15T20:40:42.428Z,101944.84
2023-04-15T20:43:04.181Z,101950.63
2023-04-15T20:45:26.770Z,101936.88
2023-04-15T20:47:48.986Z,101944.31
2023-04-15T20:50:11.730Z,101944.84
2023-04-15T20:52:33.450Z,101946.25
2023-04-15T20:54:55.641Z,101946.25
2023-04-15T20:57:17.645Z,101953.09
2023-04-15T20:59:39.301Z,101952.25
2023-04-15T21:02:01.002Z,101947.00
2023-04-15T21:04:24.396Z,101941.50
2023-04-15T21:06:46.172Z,101949.13
2023-04-15T21:09:08.686Z,101948.31
2023-04-15T21:11:53.305Z,101942.00
2023-04-15T21:14:17.088Z,101951.38
2023-04-15T21:16:39.670Z,101950.28
2023-04-15T21:19:01.371Z,101941.69
2023-04-15T21:21:23.056Z,101956.28
2023-04-15T21:23:44.795Z,101960.47
2023-04-15T21:26:06.440Z,101981.34
2023-04-15T21:28:28.447Z,101961.28
2023-04-15T21:30:50.697Z,101965.66
2023-04-15T21:33:12.383Z,101976.34
2023-04-15T21:35:34.163Z,101964.53
2023-04-15T21:37:56.255Z,101975.03
2023-04-15T21:40:19.416Z,101973.91
2023-04-15T21:42:41.676Z,101975.03
2023-04-15T21:45:04.680Z,101976.66
2023-04-15T21:47:26.852Z,101981.03
2023-04-15T21:49:48.817Z,101989.31
2023-04-15T21:52:10.673Z,101985.22
2023-04-15T21:54:33.405Z,101982.47
2023-04-15T21:56:55.195Z,101988.84
2023-04-15T21:59:16.889Z,101989.94
2023-04-15T22:01:39.457Z,101986.09
2023-04-15T22:04:01.255Z,101994.56
2023-04-15T22:06:23.062Z,101997.03
2023-04-15T22:08:56.062Z,101998.66
2023-04-15T22:11:36.604Z,102002.22
2023-04-15T22:14:09.096Z,102008.84
2023-04-15T22:16:41.084Z,102006.63
2023-04-15T22:19:12.950Z,102008.25
2023-04-15T22:21:44.692Z,102020.91
2023-04-15T22:24:38.255Z,102004.38
2023-04-15T22:27:08.601Z,102017.81
2023-04-15T22:29:40.405Z,102010.69
2023-04-15T22:32:12.203Z,102016.22
2023-04-15T22:34:44.755Z,102012.94
2023-04-15T22:37:16.522Z,102017.31
2023-04-15T22:39:48.242Z,102017.81
2023-04-15T22:42:20.807Z,102023.34
2023-04-15T22:44:52.681Z,102030.50
2023-04-15T22:47:24.439Z,102026.94
2023-04-15T22:49:56.171Z,102028.03
2023-04-15T22:52:31.008Z,102022.81
2023-04-15T22:55:03.712Z,102025.56
2023-04-15T22:57:35.433Z,102034.66
2023-04-15T23:00:08.058Z,102035.53
2023-04-15T23:02:40.040Z,102031.66
2023-04-15T23:05:12.699Z,102046.53
2023-04-15T23:07:45.104Z,102046.00
2023-04-15T23:10:16.882Z,102040.22
2023-04-15T23:12:48.951Z,102041.03
2023-04-15T23:15:21.365Z,102043.78
2023-04-15T23:17:53.123Z,102042.66
2023-04-15T23:20:24.909Z,102041.84
2023-04-15T23:22:56.621Z,102042.66
2023-04-15T23:25:28.423Z,102048.16
2023-04-15T23:28:00.355Z,102042.97
2023-04-15T23:30:32.015Z,102052.03
2023-04-15T23:33:05.081Z,102043.19
2023-04-15T23:35:37.796Z,102043.47
2023-04-15T23:38:09.750Z,102056.41
2023-04-15T23:40:41.563Z,102056.94
2023-04-15T23:43:13.460Z,102056.66
2023-04-15T23:45:45.971Z,102052.25
2023-04-15T23:48:18.096Z,102053.59
2023-04-15T23:50:50.337Z,102055.53
2023-04-15T23:53:22.115Z,102053.06
2023-04-15T23:55:53.763Z,102053.91
2023-04-15T23:58:25.805Z,102059.69
